Greenbush, Illinois
Current Conditions -  °F | °C
As of 8:35 AM on Saturday 22 Nov 2014 (Local Time) from KMQB Reporting Station
Haze Haze  
Wind Chill: 39°   Ceiling: 1700
Heat Index: 44°   Visibility: 5mi
Dew Point: 41°   Wind: 10mph
Humidity: 90%   Direction: 180°S
Pressure: 30.01"   Gusts: NA
Location:  40.6414°N, 90.4243°W
Report Text: KMQB 221435Z AUTO 18009KT 5SM BR BKN017 BKN029 OVC034 07/05 A3001 RMK AO2 T00680052
Loading
Personal Weather Stations






























Interactive Weather Map New forecast layout! Learn more

10-Day Weather Forecast

Advertisements
Track Severe Weather on mobile